.
WxDataArchive / Data Records for 2015-03-10
2015-03-09 March 2015 2015-03-11

Data Records for Tuesday, 10 March 2015

Time	Temp	Chill	HIndex	Humid	Dewpt	 Wind 	HiWind	WindDir	Rain 	Barom
-----	----	-----	------	-----	-----	------	------	-------	-----	-----
00:00	33.8	33.8	33.8	88	30.6	0	0	---	0.00	30.154 
00:05	33.8	33.8	33.8	88	30.6	0	0	---	0.00	30.154 
00:10	33.7	33.7	33.7	89	30.8	0	0	---	0.00	30.154 
00:15	33.7	33.7	33.7	89	30.8	0	0	---	0.00	30.150 
00:20	33.5	33.5	33.5	89	30.6	0	0	---	0.00	30.150 
00:25	33.4	33.4	33.4	89	30.5	0	0	---	0.00	30.150 
00:30	33.2	33.2	33.2	89	30.3	0	0	---	0.00	30.149 
00:35	33.2	33.2	33.2	90	30.6	0	0	---	0.00	30.149 
00:40	33.2	33.2	33.2	90	30.6	0	0	---	0.00	30.149 
00:45	33.1	33.1	33.1	90	30.5	0	0	---	0.00	30.148 
00:50	32.9	32.9	32.9	90	30.3	0	0	---	0.00	30.148 
00:55	32.8	32.8	32.8	90	30.2	0	0	---	0.00	30.148 
01:00	32.5	32.5	32.5	90	29.9	0	0	---	0.00	30.145 
01:05	32.4	32.4	32.4	90	29.8	0	0	---	0.00	30.145 
01:10	32.1	32.1	32.1	90	29.5	0	0	---	0.00	30.145 
01:15	31.8	31.8	31.8	90	29.2	0	0	---	0.00	30.143 
01:20	31.6	31.6	31.6	90	29.0	0	0	---	0.00	30.143 
01:25	31.5	31.5	31.5	90	28.9	0	0	---	0.00	30.143 
01:30	31.3	31.3	31.3	90	28.7	0	0	---	0.00	30.137 
01:35	31.0	31.0	31.0	90	28.4	0	0	---	0.00	30.137 
01:40	30.9	30.9	30.9	90	28.3	0	0	---	0.00	30.137 
01:45	30.7	30.7	30.7	90	28.1	0	0	---	0.00	30.133 
01:50	30.6	30.6	30.6	90	28.0	0	0	---	0.00	30.133 
01:55	30.4	30.4	30.4	91	28.1	0	0	---	0.00	30.133 
02:00	30.6	30.6	30.6	91	28.3	0	0	---	0.00	30.125 
02:05	30.6	30.6	30.6	91	28.3	0	0	---	0.00	30.125 
02:10	30.4	30.4	30.4	91	28.1	0	0	---	0.00	30.125 
02:15	30.3	30.3	30.3	91	28.0	0	0	---	0.00	30.121 
02:20	30.3	30.3	30.3	91	28.0	0	0	---	0.00	30.121 
02:25	30.1	30.1	30.1	91	27.8	0	0	---	0.00	30.121 
02:30	30.1	30.1	30.1	91	27.8	0	0	---	0.00	30.121 
02:35	30.0	30.0	30.0	91	27.7	0	0	---	0.00	30.121 
02:40	30.0	30.0	30.0	92	28.0	0	0	---	0.00	30.121 
02:45	30.0	30.0	30.0	92	28.0	0	0	---	0.00	30.119 
02:50	30.0	30.0	30.0	92	28.0	0	0	---	0.00	30.119 
02:55	29.8	29.8	29.8	92	27.8	0	0	---	0.00	30.119 
03:00	29.8	29.8	29.8	92	27.8	0	0	---	0.00	30.119 
03:05	29.8	29.8	29.8	92	27.8	0	0	---	0.00	30.119 
03:10	29.8	29.8	29.8	92	27.8	0	0	---	0.00	30.119 
03:15	29.8	29.8	29.8	92	27.8	0	0	---	0.00	30.119 
03:20	30.0	30.0	30.0	92	28.0	0	0	---	0.00	30.119 
03:25	30.1	30.1	30.1	92	28.1	0	0	---	0.00	30.119 
03:30	30.3	30.3	30.3	92	28.3	0	0	---	0.00	30.110 
03:35	30.4	30.4	30.4	92	28.4	0	0	---	0.00	30.110 
03:40	30.6	30.6	30.6	92	28.6	0	0	---	0.00	30.110 
03:45	30.6	30.6	30.6	92	28.6	0	0	---	0.00	30.103 
03:50	30.7	30.7	30.7	92	28.7	0	0	---	0.00	30.103 
03:55	30.7	30.7	30.7	93	28.9	0	0	---	0.00	30.103 
04:00	30.7	30.7	30.7	93	28.9	0	0	---	0.00	30.095 
04:05	30.9	30.9	30.9	93	29.1	0	0	---	0.00	30.095 
04:10	30.9	30.9	30.9	93	29.1	0	0	---	0.00	30.095 
04:15	31.0	31.0	31.0	93	29.2	0	0	---	0.00	30.092 
04:20	31.0	31.0	31.0	93	29.2	0	0	---	0.00	30.092 
04:25	31.2	31.2	31.2	93	29.4	0	0	---	0.00	30.092 
04:30	31.3	31.3	31.3	93	29.5	0	0	---	0.00	30.082 
04:35	31.6	31.6	31.6	93	29.8	0	2	90	0.00	30.082 
04:40	31.9	31.9	31.9	93	30.1	0	1	90	0.00	30.082 
04:45	32.2	32.2	32.2	93	30.4	0	1	90	0.00	30.082 
04:50	32.4	32.4	32.4	93	30.6	0	0	---	0.00	30.082 
04:55	32.5	32.5	32.5	93	30.7	0	1	90	0.00	30.082 
05:00	32.7	32.7	32.7	94	31.2	0	0	---	0.00	30.079 
05:05	32.8	32.8	32.8	94	31.3	0	1	90	0.00	30.079 
05:10	32.9	32.9	32.9	94	31.4	0	0	---	0.00	30.079 
05:15	33.1	33.1	33.1	94	31.6	0	0	---	0.00	30.073 
05:20	33.1	33.1	33.1	94	31.6	0	0	---	0.00	30.073 
05:25	33.1	33.1	33.1	94	31.6	0	0	---	0.00	30.073 
05:30	33.1	33.1	33.1	94	31.6	0	0	---	0.00	30.074 
05:35	33.1	33.1	33.1	94	31.6	0	0	---	0.00	30.074 
05:40	33.1	33.1	33.1	94	31.6	0	0	---	0.00	30.074 
05:45	33.2	33.2	33.2	94	31.7	0	0	---	0.00	30.074 
05:50	33.2	33.2	33.2	94	31.7	0	0	---	0.00	30.074 
05:55	33.4	33.4	33.4	94	31.9	0	0	---	0.00	30.074 
06:00	33.4	33.4	33.4	94	31.9	0	0	---	0.00	30.071 
06:05	33.5	33.5	33.5	94	32.0	0	0	---	0.00	30.071 
06:10	33.5	33.5	33.5	94	32.0	0	0	---	0.00	30.071 
06:15	33.5	33.5	33.5	94	32.0	0	0	---	0.00	30.072 
06:20	33.5	33.5	33.5	94	32.0	0	0	---	0.00	30.072 
06:25	33.5	33.5	33.5	94	32.0	0	0	---	0.00	30.072 
06:30	33.5	33.5	33.5	94	32.0	0	0	---	0.00	30.070 
06:35	33.7	33.7	33.7	94	32.2	0	0	---	0.00	30.070 
06:40	33.7	33.7	33.7	94	32.2	0	0	---	0.00	30.070 
06:45	33.7	33.7	33.7	94	32.2	0	0	---	0.00	30.066 
06:50	33.8	33.8	33.8	94	32.3	0	0	---	0.00	30.066 
06:55	33.8	33.8	33.8	94	32.3	0	0	---	0.00	30.066 
07:00	34.0	34.0	34.0	94	32.5	0	0	---	0.00	30.065 
07:05	34.1	34.1	34.1	94	32.6	0	0	---	0.00	30.065 
07:10	34.1	34.1	34.1	94	32.6	0	0	---	0.00	30.065 
07:15	34.3	34.3	34.3	94	32.8	0	0	---	0.00	30.063 
07:20	34.4	34.4	34.4	94	32.9	0	0	---	0.00	30.063 
07:25	34.4	34.4	34.4	94	32.9	0	0	---	0.00	30.063 
07:30	34.6	34.6	34.6	94	33.1	0	0	---	0.00	30.061 
07:35	34.6	34.6	34.6	94	33.1	0	0	---	0.00	30.061 
07:40	34.7	34.7	34.7	94	33.2	0	0	---	0.00	30.061 
07:45	34.7	34.7	34.7	94	33.2	0	0	---	0.00	30.070 
07:50	34.7	34.7	34.7	94	33.2	0	0	---	0.00	30.070 
07:55	34.7	34.7	34.7	94	33.2	0	0	---	0.00	30.070 
08:00	34.7	34.7	34.7	94	33.2	0	0	---	0.00	30.069 
08:05	34.7	34.7	34.7	94	33.2	0	0	---	0.00	30.069 
08:10	34.7	34.7	34.7	94	33.2	0	0	---	0.00	30.069 
08:15	34.7	34.7	34.7	94	33.2	0	0	---	0.00	30.071 
08:20	34.7	34.7	34.7	95	33.4	0	0	---	0.00	30.071 
08:25	34.9	34.9	34.9	95	33.6	0	0	---	0.00	30.071 
08:30	34.9	34.9	34.9	95	33.6	0	0	---	0.00	30.068 
08:35	34.9	34.9	34.9	95	33.6	0	0	---	0.00	30.068 
08:40	35.0	35.0	35.0	95	33.7	0	0	---	0.00	30.068 
08:45	35.0	35.0	35.0	95	33.7	0	0	---	0.00	30.069 
08:50	35.2	35.2	35.2	95	33.9	0	0	---	0.00	30.069 
08:55	35.3	35.3	35.3	95	34.0	0	0	---	0.00	30.069 
09:00	35.3	35.3	35.3	95	34.0	0	0	---	0.00	30.061 
09:05	35.3	35.3	35.3	95	34.0	0	0	---	0.00	30.061 
09:10	35.3	35.3	35.3	95	34.0	0	0	---	0.00	30.061 
09:15	35.5	35.5	35.5	95	34.2	0	0	---	0.00	30.071 
09:20	35.6	35.6	35.6	95	34.3	0	0	---	0.00	30.071 
09:25	35.8	35.8	35.8	95	34.5	0	0	---	0.00	30.071 
09:30	35.9	35.9	35.9	95	34.6	0	0	---	0.00	30.076 
09:35	36.0	36.0	36.0	95	34.7	0	0	---	0.00	30.076 
09:40	36.2	36.2	36.2	95	34.9	0	0	---	0.00	30.076 
09:45	36.3	36.3	36.3	95	35.0	0	1	90	0.00	30.073 
09:50	36.5	36.5	36.5	95	35.2	0	0	---	0.00	30.073 
09:55	36.6	36.6	36.6	95	35.3	0	0	---	0.00	30.073 
10:00	36.6	36.6	36.6	95	35.3	0	0	---	0.00	30.075 
10:05	36.9	36.9	36.9	95	35.6	0	0	---	0.00	30.075 
10:10	37.0	37.0	37.0	95	35.7	0	0	---	0.00	30.075 
10:15	37.2	37.2	37.2	95	35.9	0	0	---	0.00	30.072 
10:20	37.3	37.3	37.3	95	36.0	0	0	---	0.00	30.072 
10:25	37.5	37.5	37.5	95	36.2	0	0	---	0.00	30.072 
10:30	37.6	37.6	37.6	94	36.0	0	0	---	0.00	30.065 
10:35	37.8	37.8	37.8	94	36.2	0	0	---	0.00	30.065 
10:40	38.0	38.0	38.0	94	36.4	0	1	90	0.00	30.065 
10:45	38.5	38.5	38.5	94	36.9	0	0	---	0.00	30.059 
10:50	38.8	38.8	38.8	94	37.2	0	1	90	0.00	30.059 
10:55	39.2	39.2	39.2	93	37.3	0	1	90	0.00	30.059 
11:00	39.5	39.5	39.5	93	37.6	0	1	90	0.00	30.061 
11:05	39.6	39.6	39.6	92	37.5	0	1	90	0.00	30.061 
11:10	39.8	39.8	39.8	92	37.7	0	0	---	0.00	30.061 
11:15	39.9	39.9	39.9	92	37.8	0	1	90	0.00	30.064 
11:20	40.1	40.1	40.1	92	38.0	0	0	---	0.00	30.064 
11:25	40.2	40.2	40.2	91	37.8	0	0	---	0.00	30.064 
11:30	40.3	40.3	40.3	91	37.9	0	0	---	0.00	30.064 
11:35	40.3	40.3	40.3	91	37.9	0	0	---	0.00	30.064 
11:40	40.3	40.3	40.3	90	37.6	0	0	---	0.00	30.064 
11:45	40.5	40.5	40.5	90	37.8	0	0	---	0.00	30.063 
11:50	40.5	40.5	40.5	89	37.5	0	0	---	0.00	30.063 
11:55	40.6	40.6	40.6	89	37.6	0	0	---	0.00	30.063 
12:00	40.8	40.8	40.8	89	37.8	0	0	---	0.00	30.061 
12:05	40.9	40.9	40.9	88	37.6	0	0	---	0.00	30.061 
12:10	41.2	41.2	41.2	88	37.9	0	0	---	0.00	30.061 
12:15	41.5	41.5	41.5	87	37.9	0	2	90	0.00	30.049 
12:20	41.8	41.8	41.8	87	38.2	0	1	90	0.00	30.049 
12:25	42.1	42.1	42.1	86	38.2	0	1	90	0.00	30.049 
12:30	42.5	42.5	42.5	85	38.3	0	2	90	0.00	30.040 
12:35	42.8	42.8	42.8	85	38.6	0	1	90	0.00	30.040 
12:40	43.2	43.2	43.2	84	38.7	0	0	---	0.00	30.040 
12:45	43.5	43.5	43.5	83	38.7	0	1	90	0.00	30.031 
12:50	43.8	43.8	43.8	83	39.0	0	1	90	0.00	30.031 
12:55	44.2	44.2	44.2	82	39.1	0	1	90	0.00	30.031 
13:00	44.5	44.5	44.5	81	39.0	0	1	90	0.00	30.037 
13:05	44.5	44.5	44.5	81	39.0	0	1	90	0.00	30.037 
13:10	44.5	44.5	44.5	80	38.7	0	1	90	0.00	30.037 
13:15	44.5	44.5	44.5	80	38.7	0	1	90	0.00	30.040 
13:20	44.5	44.5	44.5	80	38.7	0	1	90	0.00	30.040 
13:25	44.3	44.3	44.3	80	38.5	0	1	90	0.00	30.040 
13:30	44.3	44.3	44.3	80	38.5	0	0	---	0.00	30.032 
13:35	44.3	44.3	44.3	81	38.8	0	1	90	0.00	30.032 
13:40	44.5	44.5	44.5	81	39.0	0	1	90	0.00	30.032 
13:45	44.3	44.3	44.3	81	38.8	0	1	90	0.00	30.030 
13:50	44.3	44.3	44.3	81	38.8	0	1	90	0.00	30.030 
13:55	44.3	44.3	44.3	81	38.8	0	2	90	0.00	30.030 
14:00	44.2	44.2	44.2	81	38.7	0	2	90	0.00	30.012 
14:05	44.2	44.2	44.2	81	38.7	0	2	90	0.00	30.012 
14:10	44.2	44.2	44.2	81	38.7	0	1	90	0.00	30.012 
14:15	44.1	44.1	44.1	81	38.6	0	1	90	0.00	30.012 
14:20	44.1	44.1	44.1	81	38.6	0	1	90	0.00	30.012 
14:25	44.1	44.1	44.1	82	39.0	0	2	90	0.00	30.012 
14:30	44.1	44.1	44.1	82	39.0	0	1	90	0.00	29.993 
14:35	44.1	44.1	44.1	82	39.0	0	2	90	0.00	29.993 
14:40	44.1	44.1	44.1	83	39.3	0	1	90	0.00	29.993 
14:45	44.1	44.1	44.1	83	39.3	0	0	---	0.00	29.982 
14:50	44.1	44.1	44.1	83	39.3	0	1	90	0.00	29.982 
14:55	44.1	44.1	44.1	83	39.3	0	2	90	0.00	29.982 
15:00	44.1	44.1	44.1	84	39.6	0	1	90	0.00	29.979 
15:05	44.1	44.1	44.1	84	39.6	0	1	90	0.00	29.979 
15:10	44.1	44.1	44.1	84	39.6	0	2	90	0.00	29.979 
15:15	44.1	44.1	44.1	84	39.6	0	1	90	0.00	29.984 
15:20	44.1	44.1	44.1	84	39.6	0	1	90	0.00	29.984 
15:25	44.1	44.1	44.1	84	39.6	0	1	90	0.00	29.984 
15:30	44.1	44.1	44.1	84	39.6	0	2	90	0.00	29.974 
15:35	44.2	44.2	44.2	84	39.7	0	2	90	0.00	29.974 
15:40	44.2	44.2	44.2	84	39.7	1	3	90	0.00	29.974 
15:45	44.1	44.1	44.1	84	39.6	1	3	90	0.00	29.974 
15:50	44.1	44.1	44.1	84	39.6	1	2	90	0.00	29.974 
15:55	44.1	44.1	44.1	84	39.6	0	2	90	0.00	29.974 
16:00	44.1	44.1	44.1	84	39.6	0	1	90	0.00	29.967 
16:05	44.1	44.1	44.1	84	39.6	0	0	---	0.00	29.967 
16:10	44.1	44.1	44.1	84	39.6	0	1	90	0.00	29.967 
16:15	44.1	44.1	44.1	84	39.6	0	1	90	0.00	29.963 
16:20	44.2	44.2	44.2	84	39.7	0	1	90	0.00	29.963 
16:25	44.5	44.5	44.5	84	40.0	0	1	90	0.00	29.963 
16:30	44.8	44.8	44.8	83	40.0	0	1	90	0.00	29.962 
16:35	44.9	44.9	44.9	83	40.1	0	1	90	0.00	29.962 
16:40	45.1	45.1	45.1	82	39.9	0	1	90	0.00	29.962 
16:45	45.2	45.2	45.2	82	40.0	0	1	90	0.00	29.963 
16:50	45.4	45.4	45.4	81	39.9	0	1	90	0.00	29.963 
16:55	45.2	45.2	45.2	81	39.7	0	0	---	0.00	29.963 
17:00	45.1	45.1	45.1	82	39.9	0	0	---	0.00	29.961 
17:05	44.9	44.9	44.9	82	39.7	0	0	---	0.00	29.961 
17:10	44.6	44.6	44.6	82	39.4	0	0	---	0.00	29.961 
17:15	44.5	44.5	44.5	83	39.7	1	2	90	0.00	29.951 
17:20	44.3	44.3	44.3	84	39.8	0	1	90	0.00	29.951 
17:25	44.2	44.2	44.2	84	39.7	0	1	90	0.00	29.951 
17:30	44.1	44.1	44.1	84	39.6	0	0	---	0.00	29.962 
17:35	44.1	44.1	44.1	84	39.6	0	2	90	0.00	29.962 
17:40	43.9	43.9	43.9	85	39.7	0	1	90	0.00	29.962 
17:45	43.9	43.9	43.9	85	39.7	0	1	90	0.00	29.953 
17:50	43.9	43.9	43.9	85	39.7	0	1	90	0.00	29.953 
17:55	43.9	43.9	43.9	85	39.7	0	0	---	0.00	29.953 
18:00	43.9	43.9	43.9	85	39.7	0	1	90	0.00	29.952 
18:05	43.8	43.8	43.8	85	39.6	0	1	90	0.00	29.952 
18:10	43.8	43.8	43.8	85	39.6	0	0	---	0.00	29.952 
18:15	43.8	43.8	43.8	85	39.6	0	0	---	0.00	29.961 
18:20	43.8	43.8	43.8	85	39.6	0	0	---	0.00	29.961 
18:25	43.6	43.6	43.6	85	39.4	0	1	90	0.00	29.961 
18:30	43.5	43.5	43.5	85	39.3	0	0	---	0.00	29.966 
18:35	43.5	43.5	43.5	85	39.3	0	0	---	0.00	29.966 
18:40	43.3	43.3	43.3	86	39.4	0	0	---	0.00	29.966 
18:45	43.3	43.3	43.3	86	39.4	0	0	---	0.00	29.975 
18:50	43.3	43.3	43.3	86	39.4	0	0	---	0.00	29.975 
18:55	43.3	43.3	43.3	86	39.4	0	0	---	0.00	29.975 
19:00	43.2	43.2	43.2	86	39.3	0	0	---	0.00	29.974 
19:05	43.1	43.1	43.1	86	39.2	0	0	---	0.00	29.974 
19:10	43.1	43.1	43.1	86	39.2	0	0	---	0.00	29.974 
19:15	42.9	42.9	42.9	86	39.0	0	0	---	0.00	29.983 
19:20	42.8	42.8	42.8	87	39.2	0	0	---	0.00	29.983 
19:25	42.6	42.6	42.6	87	39.0	0	0	---	0.00	29.983 
19:30	42.5	42.5	42.5	87	38.9	0	0	---	0.00	29.994 
19:35	42.3	42.3	42.3	87	38.7	0	0	---	0.00	29.994 
19:40	42.2	42.2	42.2	87	38.6	0	0	---	0.00	29.994 
19:45	42.1	42.1	42.1	87	38.5	0	0	---	0.00	29.995 
19:50	41.9	41.9	41.9	87	38.3	0	0	---	0.00	29.995 
19:55	41.8	41.8	41.8	88	38.5	0	0	---	0.00	29.995 
20:00	41.9	41.9	41.9	88	38.6	0	0	---	0.00	29.994 
20:05	41.8	41.8	41.8	88	38.5	0	0	---	0.00	29.994 
20:10	41.6	41.6	41.6	88	38.3	0	0	---	0.00	29.994 
20:15	41.5	41.5	41.5	88	38.2	0	0	---	0.00	29.990 
20:20	41.3	41.3	41.3	88	38.0	0	0	---	0.00	29.990 
20:25	41.2	41.2	41.2	88	37.9	0	0	---	0.00	29.990 
20:30	40.9	40.9	40.9	88	37.6	0	0	---	0.00	29.997 
20:35	40.6	40.6	40.6	88	37.3	0	0	---	0.00	29.997 
20:40	40.5	40.5	40.5	89	37.5	0	0	---	0.00	29.997 
20:45	40.3	40.3	40.3	89	37.3	0	0	---	0.00	30.003 
20:50	40.1	40.1	40.1	88	36.8	0	0	---	0.00	30.003 
20:55	39.9	39.9	39.9	88	36.6	0	0	---	0.00	30.003 
21:00	39.8	39.8	39.8	89	36.8	0	0	---	0.00	29.997 
21:05	39.6	39.6	39.6	89	36.6	0	0	---	0.00	29.997 
21:10	39.5	39.5	39.5	89	36.5	0	0	---	0.00	29.997 
21:15	39.3	39.3	39.3	89	36.3	0	0	---	0.00	30.008 
21:20	39.2	39.2	39.2	90	36.5	0	0	---	0.00	30.008 
21:25	39.1	39.1	39.1	90	36.4	0	0	---	0.00	30.008 
21:30	38.9	38.9	38.9	90	36.2	0	0	---	0.00	30.010 
21:35	38.8	38.8	38.8	90	36.1	0	0	---	0.00	30.010 
21:40	38.5	38.5	38.5	90	35.8	0	0	---	0.00	30.010 
21:45	38.3	38.3	38.3	90	35.6	0	0	---	0.00	30.008 
21:50	38.2	38.2	38.2	90	35.5	0	0	---	0.00	30.008 
21:55	37.9	37.9	37.9	91	35.5	0	0	---	0.00	30.008 
22:00	37.8	37.8	37.8	91	35.4	0	0	---	0.00	30.013 
22:05	37.5	37.5	37.5	91	35.1	0	0	---	0.00	30.013 
22:10	37.2	37.2	37.2	91	34.8	0	0	---	0.00	30.013 
22:15	37.0	37.0	37.0	91	34.6	0	0	---	0.00	30.016 
22:20	36.9	36.9	36.9	91	34.5	0	0	---	0.00	30.016 
22:25	36.8	36.8	36.8	91	34.4	0	0	---	0.00	30.016 
22:30	36.6	36.6	36.6	91	34.2	0	0	---	0.00	30.015 
22:35	36.5	36.5	36.5	91	34.1	0	0	---	0.00	30.015 
22:40	36.3	36.3	36.3	91	33.9	0	0	---	0.00	30.015 
22:45	36.2	36.2	36.2	91	33.8	0	0	---	0.00	30.019 
22:50	36.0	36.0	36.0	91	33.6	0	0	---	0.00	30.019 
22:55	35.9	35.9	35.9	91	33.5	0	0	---	0.00	30.019 
23:00	35.8	35.8	35.8	91	33.4	0	0	---	0.00	30.017 
23:05	35.6	35.6	35.6	92	33.5	0	0	---	0.00	30.017 
23:10	35.5	35.5	35.5	92	33.4	0	0	---	0.00	30.017 
23:15	35.3	35.3	35.3	92	33.2	0	0	---	0.00	30.026 
23:20	35.3	35.3	35.3	92	33.2	0	0	---	0.00	30.026 
23:25	35.2	35.2	35.2	92	33.1	0	0	---	0.00	30.026 
23:30	35.0	35.0	35.0	92	32.9	0	0	---	0.00	30.037 
23:35	35.2	35.2	35.2	92	33.1	0	0	---	0.00	30.037 
23:40	35.3	35.3	35.3	92	33.2	0	0	---	0.00	30.037 
23:45	35.3	35.3	35.3	92	33.2	0	0	---	0.00	30.040 
23:50	35.6	35.6	35.6	93	33.8	0	0	---	0.00	30.040 
23:55	36.0	36.0	36.0	93	34.2	0	0	---	0.00	30.040 

CoCoRaHS
IN-AL-39
A2 Web Hosting
Creative Commons License
GoDaddy
search engine by freefind advanced

loaded 2018-11-13 02:48:04 • last modified 2010-11-18 10:43:29
Privacy PolicyDisclaimer
• wx.awcolley.com is powered by PmWiki v.2002016 •
• all content (unless otherwise noted) © 2018 A W Colley